Huvudsida
METAR-TAF:

METAR-TAF

Flygplatser :

Stockholm-Bromma flygplats

Stockholm, Sverige

latitud: 59-21N, longitud: 017-57E, höjd: 14 m

Aktuellt väderrapport

Denna rapport gjordes för 22 minuter sedan, klockan 19:20 UTC
Vind 3 kt från sydväst
Temperatur 14°C
Fuktighet 82%
Tryck 1013 hPa
Sikt 10 km eller mer

METAR: ESSB 111920Z AUTO 23003KT 9999 NCD 14/11 Q1013

Tid: 21:42 (19:42 UTC)

Väderprognos

Denna rapport gjordes för 2 timmar och 12 minuter sedan, klockan 17:30 UTC
Prognos gäller från 11 kl. 18 UTC till 12 kl. 03 UTC
Vind 4 kt från syd/sydväst
Sikt 10 km eller mer
Inga moln under 1 500 m eller inga cumulonimbus
Sannolikhet 40%
från 11 kl. 18 UTC till 11 kl. 22 UTC
Spridda moln på en höjd av 6000 ft, Cumulonimbus.
regnskurar
Temporärt
från 11 kl. 22 UTC till 12 kl. 03 UTC
Sikt: 3000 m
fuktdis

TAF: ESSB 111730Z 1118/1203 20004KT CAVOK PROB40 1118/1122 SHRA SCT060CB TEMPO 1122/1203 3000 BR

Aktuella väderrapporter och prognoser från 4000 flygplatser (METAR- och TAF-rapporter).

De tillgängliga stationerna syns som gula och röda prickar på kartan.

För musen över prickarna för att se namnen på stationerna.

Klicka sedan för att få väderrapporter och prognoser.

För att ändra kartan: Klicka på de gröna knapparna med ett svart kors på för att zooma in; den gröna knappen med ett streck på för att zooma ut; eller på de gröna pilarna för angränsande kartor.


METAR-TAF: